Time;durP1;ratioP1;P1;durP2;ratioP2;P2;SDS_P1;SDS_P2;PMS_P1;PMS_P2;Temp;Humidity;BMP_temperature;BMP_pressure;BME280_temperature;BME280_humidity;BME280_pressure;Samples;Min_cycle;Max_cycle;Signal;HPM_P1;HPM_P2
2022/11/21 00:01:52;;;;;;;;;;;;;;;;;;6272425;22;19973;-83
2022/11/21 00:04:18;;;;;;;;;;;;;;;;;;6273579;22;19911;-83
2022/11/21 00:06:44;;;;;;;;;;;;;;;;;;6272414;22;19930;-82
2022/11/21 00:09:10;;;;;;;;;;;;;;;;;;6272514;22;19938;-81
2022/11/21 00:11:36;;;;;;;;;;;;;;;;;;6272330;22;19925;-82
2022/11/21 00:14:02;;;;;;;;;;;;;;;;;;6270612;22;19933;-81
2022/11/21 00:16:28;;;;;;;;;;;;;;;;;;6272130;22;19903;-82
2022/11/21 00:18:53;;;;;;;;;;;;;;;;;;6272520;22;19913;-82
2022/11/21 00:21:20;;;;;;;;;;;;;;;;;;6271732;22;19961;-81
2022/11/21 00:23:45;;;;;;;;;;;;;;;;;;6272329;22;19903;-81
2022/11/21 00:26:11;;;;;;;;;;;;;;;;;;6272267;22;19909;-82
2022/11/21 00:28:37;;;;;;;;;;;;;;;;;;6272076;22;20434;-83
2022/11/21 00:31:03;;;;;;;;;;;;;;;;;;6272017;22;19904;-82
2022/11/21 00:33:29;;;;;;;;;;;;;;;;;;6272385;22;20328;-82
2022/11/21 00:35:55;;;;;;;;;;;;;;;;;;6272295;22;19982;-81
2022/11/21 00:38:23;;;;;;;;;;;;;;;;;;6272955;22;19910;-82
2022/11/21 00:40:49;;;;;;;;;;;;;;;;;;6273193;22;19914;-82
2022/11/21 00:43:14;;;;;;;;;;;;;;;;;;6271998;22;19911;-82
2022/11/21 00:45:40;;;;;;;;;;;;;;;;;;6271777;22;19904;-81
2022/11/21 00:48:06;;;;;;;;;;;;;;;;;;6272195;22;19949;-83
2022/11/21 00:50:32;;;;;;;;;;;;;;;;;;6272130;22;19903;-82
2022/11/21 00:52:58;;;;;;;;;;;;;;;;;;6272022;22;19903;-82
2022/11/21 00:55:24;;;;;;;;;;;;;;;;;;6272954;22;19938;-82
2022/11/21 00:57:50;;;;;;;;;;;;;;;;;;6272926;22;19904;-82
2022/11/21 01:00:16;;;;;;;;;;;;;;;;;;6271682;22;19907;-81
2022/11/21 01:02:42;;;;;;;;;;;;;;;;;;6272030;22;19907;-82
2022/11/21 01:05:07;;;;;;;;;;;;;;;;;;6271766;22;19903;-82
2022/11/21 01:07:33;;;;;;;;;;;;;;;;;;6271971;22;19904;-81
2022/11/21 01:09:59;;;;;;;;;;;;;;;;;;6271816;22;19904;-81
2022/11/21 01:12:25;;;;;;;;;;;;;;;;;;6272487;22;19982;-81
2022/11/21 01:14:51;;;;;;;;;;;;;;;;;;6272722;22;19903;-81
2022/11/21 01:17:17;;;;;;;;;;;;;;;;;;6244854;22;19903;-82
2022/11/21 01:19:43;;;;;;;;;;;;;;;;;;6271945;22;19903;-81
2022/11/21 01:22:09;;;;;;;;;;;;;;;;;;6271747;22;19911;-82
2022/11/21 01:24:34;;;;;;;;;;;;;;;;;;6271812;22;19907;-81
2022/11/21 01:27:00;;;;;;;;;;;;;;;;;;6271714;22;19930;-82
2022/11/21 01:29:26;;;;;;;;;;;;;;;;;;6271822;22;19910;-81
2022/11/21 01:31:52;;;;;;;;;;;;;;;;;;6272918;22;19945;-81
2022/11/21 01:34:18;;;;;;;;;;;;;;;;;;6244639;22;19952;-82
2022/11/21 01:36:44;;;;;;;;;;;;;;;;;;6271774;22;19907;-82
2022/11/21 01:39:10;;;;;;;;;;;;;;;;;;6271665;22;19912;-82
2022/11/21 01:41:36;;;;;;;;;;;;;;;;;;6271520;22;19934;-81
2022/11/21 01:44:02;;;;;;;;;;;;;;;;;;6271603;22;19926;-82
2022/11/21 01:46:28;;;;;;;;;;;;;;;;;;6271870;22;20364;-82
2022/11/21 01:48:53;;;;;;;;;;;;;;;;;;6272912;22;19907;-82
2022/11/21 01:51:19;;;;;;;;;;;;;;;;;;6244462;22;20324;-83
2022/11/21 01:53:45;;;;;;;;;;;;;;;;;;6271579;22;19903;-85
2022/11/21 01:56:11;;;;;;;;;;;;;;;;;;6244302;22;19910;-84
2022/11/21 01:58:37;;;;;;;;;;;;;;;;;;6271374;22;19903;-86
2022/11/21 02:01:03;;;;;;;;;;;;;;;;;;6271686;22;19911;-87
2022/11/21 02:03:29;;;;;;;;;;;;;;;;;;6271622;22;19903;-88
2022/11/21 02:05:55;;;;;;;;;;;;;;;;;;6245457;22;19903;-87
2022/11/21 02:08:21;;;;;;;;;;;;;;;;;;6271567;22;19982;-86
2022/11/21 02:10:47;;;;;;;;;;;;;;;;;;6244242;22;19911;-86
2022/11/21 02:13:13;;;;;;;;;;;;;;;;;;6271478;22;19910;-86
2022/11/21 02:15:38;;;;;;;;;;;;;;;;;;6272870;22;19943;-87
2022/11/21 02:18:04;;;;;;;;;;;;;;;;;;6273550;22;19960;-87
2022/11/21 02:20:30;;;;;;;;;;;;;;;;;;6273436;22;19903;-85
2022/11/21 02:22:56;;;;;;;;;;;;;;;;;;6274570;22;19907;-83
2022/11/21 02:25:22;;;;;;;;;;;;;;;;;;6273283;22;19903;-82
2022/11/21 02:27:48;;;;;;;;;;;;;;;;;;6273286;22;20396;-83
2022/11/21 02:30:14;;;;;;;;;;;;;;;;;;6273426;22;19973;-84
2022/11/21 02:32:40;;;;;;;;;;;;;;;;;;6273522;22;19915;-87
2022/11/21 02:35:05;;;;;;;;;;;;;;;;;;6273963;22;20328;-86
2022/11/21 02:37:31;;;;;;;;;;;;;;;;;;6274410;22;19931;-86
2022/11/21 02:39:57;;;;;;;;;;;;;;;;;;6275141;22;20251;-85
2022/11/21 02:42:23;;;;;;;;;;;;;;;;;;6273516;22;19973;-85
2022/11/21 02:44:49;;;;;;;;;;;;;;;;;;6246215;22;20141;-82
2022/11/21 02:47:15;;;;;;;;;;;;;;;;;;6273358;22;19904;-83
2022/11/21 02:49:41;;;;;;;;;;;;;;;;;;6273233;22;19978;-84
2022/11/21 02:52:07;;;;;;;;;;;;;;;;;;6246004;22;19904;-84
2022/11/21 02:54:33;;;;;;;;;;;;;;;;;;6245973;22;19903;-85
2022/11/21 02:56:58;;;;;;;;;;;;;;;;;;6273992;22;19949;-84
2022/11/21 02:59:24;;;;;;;;;;;;;;;;;;6273112;22;19913;-84
2022/11/21 03:01:50;;;;;;;;;;;;;;;;;;6272933;22;20121;-83
2022/11/21 03:04:16;;;;;;;;;;;;;;;;;;6273142;22;19903;-85
2022/11/21 03:06:42;;;;;;;;;;;;;;;;;;6273023;22;19903;-86
2022/11/21 03:09:08;;;;;;;;;;;;;;;;;;6272978;22;19911;-85
2022/11/21 03:11:34;;;;;;;;;;;;;;;;;;6272755;22;19911;-83
2022/11/21 03:14:00;;;;;;;;;;;;;;;;;;6247019;22;19949;-86
2022/11/21 03:16:26;;;;;;;;;;;;;;;;;;6272851;22;19974;-84
2022/11/21 03:18:51;;;;;;;;;;;;;;;;;;6272879;22;20278;-87
2022/11/21 03:21:17;;;;;;;;;;;;;;;;;;6272657;22;19907;-86
2022/11/21 03:23:43;;;;;;;;;;;;;;;;;;6272836;22;20025;-84
2022/11/21 03:26:09;;;;;;;;;;;;;;;;;;6272516;22;19957;-85
2022/11/21 03:28:35;;;;;;;;;;;;;;;;;;6272910;22;19915;-85
2022/11/21 03:31:01;;;;;;;;;;;;;;;;;;6273972;22;19926;-81
2022/11/21 03:33:27;;;;;;;;;;;;;;;;;;6272750;22;20332;-85
2022/11/21 03:35:53;;;;;;;;;;;;;;;;;;6245530;22;19965;-86
2022/11/21 03:38:18;;;;;;;;;;;;;;;;;;6272437;22;19903;-86
2022/11/21 03:40:44;;;;;;;;;;;;;;;;;;6272372;22;20010;-86
2022/11/21 03:43:10;;;;;;;;;;;;;;;;;;6272773;22;19931;-86
2022/11/21 03:45:36;;;;;;;;;;;;;;;;;;6272665;22;19949;-87
2022/11/21 03:48:02;;;;;;;;;;;;;;;;;;6273730;22;20240;-82
2022/11/21 03:50:28;;;;;;;;;;;;;;;;;;6273617;22;19903;-86
2022/11/21 03:52:54;;;;;;;;;;;;;;;;;;6272402;22;19903;-85
2022/11/21 03:55:20;;;;;;;;;;;;;;;;;;6272336;22;19903;-85
2022/11/21 03:57:46;;;;;;;;;;;;;;;;;;6272721;22;19926;-86
2022/11/21 04:00:12;;;;;;;;;;;;;;;;;;6272864;22;20344;-86
2022/11/21 04:02:38;;;;;;;;;;;;;;;;;;6272490;22;19911;-86
2022/11/21 04:05:04;;;;;;;;;;;;;;;;;;6272595;22;19904;-81
2022/11/21 04:07:30;;;;;;;;;;;;;;;;;;6273356;22;19903;-84
2022/11/21 04:09:56;;;;;;;;;;;;;;;;;;6272152;22;19934;-86
2022/11/21 04:12:22;;;;;;;;;;;;;;;;;;6272434;22;19903;-85
2022/11/21 04:14:47;;;;;;;;;;;;;;;;;;6245326;22;19903;-83
2022/11/21 04:17:13;;;;;;;;;;;;;;;;;;6272306;22;19909;-91
2022/11/21 04:19:39;;;;;;;;;;;;;;;;;;6272240;22;19957;-86
2022/11/21 04:22:05;;;;;;;;;;;;;;;;;;6272125;22;19911;-84
2022/11/21 04:24:31;;;;;;;;;;;;;;;;;;6273014;22;19903;-86
2022/11/21 04:26:57;;;;;;;;;;;;;;;;;;6272349;22;19931;-87
2022/11/21 04:29:23;;;;;;;;;;;;;;;;;;6272400;22;20351;-87
2022/11/21 04:31:49;;;;;;;;;;;;;;;;;;6245165;22;19949;-85
2022/11/21 04:34:15;;;;;;;;;;;;;;;;;;6272145;22;19934;-85
2022/11/21 04:36:40;;;;;;;;;;;;;;;;;;6272037;22;19982;-87
2022/11/21 04:39:06;;;;;;;;;;;;;;;;;;6271566;22;20386;-84
2022/11/21 04:41:32;;;;;;;;;;;;;;;;;;6245995;22;19911;-86
2022/11/21 04:43:58;;;;;;;;;;;;;;;;;;6272182;22;20331;-85
2022/11/21 04:46:24;;;;;;;;;;;;;;;;;;6244895;22;20352;-86
2022/11/21 04:48:50;;;;;;;;;;;;;;;;;;6244809;22;19957;-85
2022/11/21 04:51:16;;;;;;;;;;;;;;;;;;6272028;22;19910;-87
2022/11/21 04:53:42;;;;;;;;;;;;;;;;;;6244974;22;19973;-87
2022/11/21 04:56:08;;;;;;;;;;;;;;;;;;6245189;22;19903;-86
2022/11/21 04:58:34;;;;;;;;;;;;;;;;;;6273216;22;19903;-85
2022/11/21 05:00:59;;;;;;;;;;;;;;;;;;6244926;22;19913;-86
2022/11/21 05:03:25;;;;;;;;;;;;;;;;;;6244735;22;19941;-87
2022/11/21 05:05:51;;;;;;;;;;;;;;;;;;6270814;22;20307;-86
2022/11/21 05:08:17;;;;;;;;;;;;;;;;;;6243254;22;19978;-86
2022/11/21 05:13:28;;;;;;;;;;;;;;;;;;6272852;22;20136;-89
2022/11/21 05:15:53;;;;;;;;;;;;;;;;;;6273486;22;19907;-87
2022/11/21 05:18:19;;;;;;;;;;;;;;;;;;6273235;22;19903;-88
2022/11/21 05:20:45;;;;;;;;;;;;;;;;;;6262819;22;19969;-87
2022/11/21 05:23:11;;;;;;;;;;;;;;;;;;6269411;22;19907;-87
2022/11/21 05:25:37;;;;;;;;;;;;;;;;;;6270745;22;19934;-88
2022/11/21 05:28:03;;;;;;;;;;;;;;;;;;6270169;22;20304;-87
2022/11/21 05:30:29;;;;;;;;;;;;;;;;;;6269335;22;19915;-87
2022/11/21 05:32:55;;;;;;;;;;;;;;;;;;6270793;22;19907;-87
2022/11/21 05:35:21;;;;;;;;;;;;;;;;;;6270984;22;19904;-87
2022/11/21 05:37:47;;;;;;;;;;;;;;;;;;6244241;22;20339;-87
2022/11/21 05:40:12;;;;;;;;;;;;;;;;;;6269660;22;19911;-87
2022/11/21 05:45:23;;;;;;;;;;;;;;;;;;6271511;22;19910;-91
2022/11/21 05:47:49;;;;;;;;;;;;;;;;;;6243776;22;19904;-87
2022/11/21 05:50:17;;;;;;;;;;;;;;;;;;6245209;22;20282;-89
2022/11/21 05:52:43;;;;;;;;;;;;;;;;;;6273377;22;19903;-87
2022/11/21 05:55:09;;;;;;;;;;;;;;;;;;6273416;22;19910;-89
2022/11/21 05:57:35;;;;;;;;;;;;;;;;;;6247084;22;20331;-87
2022/11/21 06:00:01;;;;;;;;;;;;;;;;;;6273242;22;19911;-87
2022/11/21 06:05:12;;;;;;;;;;;;;;;;;;6273799;22;19910;-89
2022/11/21 06:07:37;;;;;;;;;;;;;;;;;;6247892;22;19903;-88
2022/11/21 06:10:03;;;;;;;;;;;;;;;;;;6274132;22;19903;-91
2022/11/21 06:12:29;;;;;;;;;;;;;;;;;;6245950;22;19911;-90
2022/11/21 06:14:55;;;;;;;;;;;;;;;;;;6272656;22;19942;-87
2022/11/21 06:17:21;;;;;;;;;;;;;;;;;;6273226;22;19910;-89
2022/11/21 06:19:47;;;;;;;;;;;;;;;;;;6273460;22;19957;-91
2022/11/21 06:22:13;;;;;;;;;;;;;;;;;;6246528;22;19918;-91
2022/11/21 06:24:39;;;;;;;;;;;;;;;;;;6274566;22;19903;-87
2022/11/21 06:27:05;;;;;;;;;;;;;;;;;;6274749;22;19988;-86
2022/11/21 06:29:30;;;;;;;;;;;;;;;;;;6246565;22;19910;-89
2022/11/21 06:31:56;;;;;;;;;;;;;;;;;;6273482;22;19904;-90
2022/11/21 06:34:22;;;;;;;;;;;;;;;;;;6274521;22;19904;-89
2022/11/21 06:36:49;;;;;;;;;;;;;;;;;;6277199;22;19947;-89
2022/11/21 06:39:15;;;;;;;;;;;;;;;;;;6278543;22;19915;-87
2022/11/21 06:41:41;;;;;;;;;;;;;;;;;;6275813;22;20274;-88
2022/11/21 06:44:07;;;;;;;;;;;;;;;;;;6276186;22;19910;-89
2022/11/21 06:46:33;;;;;;;;;;;;;;;;;;6246429;22;20001;-88
2022/11/21 06:48:59;;;;;;;;;;;;;;;;;;6246381;22;19908;-89
2022/11/21 06:51:25;;;;;;;;;;;;;;;;;;6246305;22;19913;-87
2022/11/21 06:53:54;;;;;;;;;;;;;;;;;;6246673;22;20352;-88
2022/11/21 06:56:20;;;;;;;;;;;;;;;;;;6246128;22;19903;-91
2022/11/21 06:58:46;;;;;;;;;;;;;;;;;;6246039;22;19909;-91
2022/11/21 07:01:12;;;;;;;;;;;;;;;;;;6272907;22;20247;-89
2022/11/21 07:03:38;;;;;;;;;;;;;;;;;;6274608;22;19904;-89
2022/11/21 07:06:04;;;;;;;;;;;;;;;;;;6273130;22;19988;-88
2022/11/21 07:08:30;;;;;;;;;;;;;;;;;;6273162;22;19974;-89
2022/11/21 07:10:55;;;;;;;;;;;;;;;;;;6273645;22;19904;-89
2022/11/21 07:13:21;;;;;;;;;;;;;;;;;;6273225;22;19903;-91
2022/11/21 07:15:47;;;;;;;;;;;;;;;;;;6246109;22;20212;-89
2022/11/21 07:18:13;;;;;;;;;;;;;;;;;;6245974;22;19949;-89
2022/11/21 07:20:39;;;;;;;;;;;;;;;;;;6246844;22;20244;-89
2022/11/21 07:23:05;;;;;;;;;;;;;;;;;;6245730;22;20367;-89
2022/11/21 07:25:31;;;;;;;;;;;;;;;;;;6272973;22;19977;-91
2022/11/21 07:27:57;;;;;;;;;;;;;;;;;;6246162;22;19903;-89
2022/11/21 07:30:23;;;;;;;;;;;;;;;;;;6245832;22;19926;-90
2022/11/21 07:32:49;;;;;;;;;;;;;;;;;;6245969;22;19916;-89
2022/11/21 07:35:15;;;;;;;;;;;;;;;;;;6245827;22;19907;-87
2022/11/21 07:37:40;;;;;;;;;;;;;;;;;;6273751;22;20358;-90
2022/11/21 07:40:06;;;;;;;;;;;;;;;;;;6272711;22;19912;-89
2022/11/21 07:42:32;;;;;;;;;;;;;;;;;;6272879;22;19911;-89
2022/11/21 07:44:58;;;;;;;;;;;;;;;;;;6272856;22;19907;-87
2022/11/21 07:47:24;;;;;;;;;;;;;;;;;;6245823;22;19957;-89
2022/11/21 07:49:50;;;;;;;;;;;;;;;;;;6272927;22;20367;-89
2022/11/21 07:52:16;;;;;;;;;;;;;;;;;;6273028;22;19993;-90
2022/11/21 07:54:42;;;;;;;;;;;;;;;;;;6274510;22;19926;-90
2022/11/21 07:57:08;;;;;;;;;;;;;;;;;;6275456;22;19903;-89
2022/11/21 07:59:33;;;;;;;;;;;;;;;;;;6275168;22;19904;-89
2022/11/21 08:01:59;;;;;;;;;;;;;;;;;;6274399;22;20271;-89
2022/11/21 08:04:25;;;;;;;;;;;;;;;;;;6272766;22;20287;-90
2022/11/21 08:06:51;;;;;;;;;;;;;;;;;;6245524;22;19942;-89
2022/11/21 08:09:17;;;;;;;;;;;;;;;;;;6245779;22;19907;-90
2022/11/21 08:11:43;;;;;;;;;;;;;;;;;;6247043;22;19903;-90
2022/11/21 08:14:09;;;;;;;;;;;;;;;;;;6245933;22;20331;-90
2022/11/21 08:16:35;;;;;;;;;;;;;;;;;;6272663;22;20414;-91
2022/11/21 08:19:01;;;;;;;;;;;;;;;;;;6245462;22;19978;-89
2022/11/21 08:21:27;;;;;;;;;;;;;;;;;;6272477;22;20407;-90
2022/11/21 08:23:52;;;;;;;;;;;;;;;;;;6245496;22;19903;-88
2022/11/21 08:26:18;;;;;;;;;;;;;;;;;;6272612;22;19903;-90
2022/11/21 08:28:44;;;;;;;;;;;;;;;;;;6273682;22;20246;-89
2022/11/21 08:31:10;;;;;;;;;;;;;;;;;;6245405;22;19903;-89
2022/11/21 08:33:36;;;;;;;;;;;;;;;;;;6245078;22;20244;-89
2022/11/21 08:36:02;;;;;;;;;;;;;;;;;;6245060;22;19987;-89
2022/11/21 08:38:28;;;;;;;;;;;;;;;;;;6272250;22;19912;-88
2022/11/21 08:43:38;;;;;;;;;;;;;;;;;;6272107;22;19910;-89
2022/11/21 08:46:04;;;;;;;;;;;;;;;;;;6244903;22;19903;-88
2022/11/21 08:48:30;;;;;;;;;;;;;;;;;;6272014;22;19903;-88
2022/11/21 08:50:56;;;;;;;;;;;;;;;;;;6244758;22;19904;-89
2022/11/21 08:53:22;;;;;;;;;;;;;;;;;;6272180;22;19982;-89
2022/11/21 08:55:48;;;;;;;;;;;;;;;;;;6245018;22;19952;-88
2022/11/21 08:58:14;;;;;;;;;;;;;;;;;;6246559;22;20343;-88
2022/11/21 09:00:40;;;;;;;;;;;;;;;;;;6244766;22;19910;-89
2022/11/21 09:03:05;;;;;;;;;;;;;;;;;;6271990;22;20298;-88
2022/11/21 09:05:31;;;;;;;;;;;;;;;;;;6272061;22;19937;-88
2022/11/21 09:07:57;;;;;;;;;;;;;;;;;;6245356;22;20267;-89
2022/11/21 09:10:23;;;;;;;;;;;;;;;;;;6271975;22;19903;-88
2022/11/21 09:12:49;;;;;;;;;;;;;;;;;;6244959;22;19907;-89
2022/11/21 09:18:02;;;;;;;;;;;;;;;;;;6273883;22;19939;-89
2022/11/21 09:20:28;;;;;;;;;;;;;;;;;;6246239;22;19954;-90
2022/11/21 09:22:54;;;;;;;;;;;;;;;;;;6271891;22;19911;-88
2022/11/21 09:25:20;;;;;;;;;;;;;;;;;;6244545;22;19934;-88
2022/11/21 09:27:46;;;;;;;;;;;;;;;;;;6245674;22;19903;-87
2022/11/21 09:30:12;;;;;;;;;;;;;;;;;;6244527;22;19903;-89
2022/11/21 09:32:39;;;;;;;;;;;;;;;;;;6244572;22;19910;-88
2022/11/21 09:35:05;;;;;;;;;;;;;;;;;;6271879;22;19904;-90
2022/11/21 09:37:31;;;;;;;;;;;;;;;;;;6245209;22;19903;-88
2022/11/21 09:39:57;;;;;;;;;;;;;;;;;;6271572;22;20303;-88
2022/11/21 09:42:22;;;;;;;;;;;;;;;;;;6244597;22;19918;-88
2022/11/21 09:44:48;;;;;;;;;;;;;;;;;;6272824;22;20294;-88
2022/11/21 09:47:14;;;;;;;;;;;;;;;;;;6271623;22;19911;-88
2022/11/21 09:49:40;;;;;;;;;;;;;;;;;;6271756;22;20141;-88
2022/11/21 09:52:06;;;;;;;;;;;;;;;;;;6272172;22;19903;-89
2022/11/21 09:54:32;;;;;;;;;;;;;;;;;;6244551;22;19911;-89
2022/11/21 09:56:59;;;;;;;;;;;;;;;;;;6244664;22;19974;-89
2022/11/21 09:59:25;;;;;;;;;;;;;;;;;;6244475;22;19907;-88
2022/11/21 10:01:51;;;;;;;;;;;;;;;;;;6271839;22;19911;-88
2022/11/21 10:04:17;;;;;;;;;;;;;;;;;;6245598;22;20320;-89
2022/11/21 10:06:43;;;;;;;;;;;;;;;;;;6271609;22;19949;-88
2022/11/21 10:09:09;;;;;;;;;;;;;;;;;;6244660;22;19926;-88
2022/11/21 10:11:34;;;;;;;;;;;;;;;;;;6271658;22;19931;-86
2022/11/21 10:14:00;;;;;;;;;;;;;;;;;;6271580;22;19907;-89
2022/11/21 10:16:26;;;;;;;;;;;;;;;;;;6244428;22;19903;-89
2022/11/21 10:18:52;;;;;;;;;;;;;;;;;;6271756;22;19903;-88
2022/11/21 10:21:18;;;;;;;;;;;;;;;;;;6245654;22;20014;-88
2022/11/21 10:23:44;;;;;;;;;;;;;;;;;;6244345;22;20328;-88
2022/11/21 10:26:10;;;;;;;;;;;;;;;;;;6271460;22;19907;-88
2022/11/21 10:28:36;;;;;;;;;;;;;;;;;;6244317;22;19907;-87
2022/11/21 10:31:02;;;;;;;;;;;;;;;;;;6271335;22;19904;-87
2022/11/21 10:33:27;;;;;;;;;;;;;;;;;;6271672;22;19903;-88
2022/11/21 10:35:53;;;;;;;;;;;;;;;;;;6244699;22;19931;-87
2022/11/21 10:38:19;;;;;;;;;;;;;;;;;;6274208;22;19909;-87
2022/11/21 10:40:46;;;;;;;;;;;;;;;;;;6246158;22;19926;-88
2022/11/21 10:45:56;;;;;;;;;;;;;;;;;;6273147;22;19952;-87
2022/11/21 10:48:22;;;;;;;;;;;;;;;;;;6247171;22;19903;-87
2022/11/21 10:50:49;;;;;;;;;;;;;;;;;;6247061;22;19910;-88
2022/11/21 10:55:59;;;;;;;;;;;;;;;;;;6273064;22;19918;-88
2022/11/21 10:58:25;;;;;;;;;;;;;;;;;;6246225;22;19904;-87
2022/11/21 11:00:51;;;;;;;;;;;;;;;;;;6274043;22;19904;-88
2022/11/21 11:03:17;;;;;;;;;;;;;;;;;;6245973;22;19969;-89
2022/11/21 11:05:43;;;;;;;;;;;;;;;;;;6245972;22;19903;-88
2022/11/21 11:08:08;;;;;;;;;;;;;;;;;;6245801;22;19929;-88
2022/11/21 11:10:34;;;;;;;;;;;;;;;;;;6272958;22;19907;-88
2022/11/21 11:15:45;;;;;;;;;;;;;;;;;;6272976;22;19994;-88
2022/11/21 11:18:11;;;;;;;;;;;;;;;;;;6272973;22;19932;-89
2022/11/21 11:20:37;;;;;;;;;;;;;;;;;;6245578;22;19990;-88
2022/11/21 11:23:03;;;;;;;;;;;;;;;;;;6272756;22;19913;-88
2022/11/21 11:25:29;;;;;;;;;;;;;;;;;;6245750;22;19903;-88
2022/11/21 11:27:55;;;;;;;;;;;;;;;;;;6274520;22;19903;-88
2022/11/21 11:30:21;;;;;;;;;;;;;;;;;;6273892;22;19926;-88
2022/11/21 11:32:47;;;;;;;;;;;;;;;;;;6245947;22;20270;-88
2022/11/21 11:35:12;;;;;;;;;;;;;;;;;;6272800;22;19905;-87
2022/11/21 11:37:38;;;;;;;;;;;;;;;;;;6245612;22;19953;-88
2022/11/21 11:40:04;;;;;;;;;;;;;;;;;;6265376;22;20359;-87
2022/11/21 11:48:00;;;;;;;;;;;;;;;;;;6273069;22;19985;-89
2022/11/21 11:50:25;;;;;;;;;;;;;;;;;;6278112;22;20298;-88
2022/11/21 11:52:51;;;;;;;;;;;;;;;;;;6276931;22;19911;-89
2022/11/21 11:55:17;;;;;;;;;;;;;;;;;;6274302;22;19907;-88
2022/11/21 11:57:43;;;;;;;;;;;;;;;;;;6272593;22;19904;-89
2022/11/21 12:00:09;;;;;;;;;;;;;;;;;;6272770;22;19974;-89
2022/11/21 12:02:35;;;;;;;;;;;;;;;;;;6272484;22;19911;-88
2022/11/21 12:05:01;;;;;;;;;;;;;;;;;;6272421;22;19931;-89
2022/11/21 12:07:27;;;;;;;;;;;;;;;;;;6273742;22;19943;-88
2022/11/21 12:09:53;;;;;;;;;;;;;;;;;;6273654;22;19949;-89
2022/11/21 12:12:19;;;;;;;;;;;;;;;;;;6272500;22;19908;-88
2022/11/21 12:17:30;;;;;;;;;;;;;;;;;;6272334;22;19910;-88
2022/11/21 12:19:55;;;;;;;;;;;;;;;;;;6273551;22;19907;-88
2022/11/21 12:22:21;;;;;;;;;;;;;;;;;;6270733;22;19915;-87
2022/11/21 12:24:47;;;;;;;;;;;;;;;;;;6270738;22;19910;-88
2022/11/21 12:27:13;;;;;;;;;;;;;;;;;;6270630;22;20248;-88
2022/11/21 12:29:39;;;;;;;;;;;;;;;;;;6270584;22;19903;-89
2022/11/21 12:32:05;;;;;;;;;;;;;;;;;;6271932;22;19903;-89
2022/11/21 12:34:31;;;;;;;;;;;;;;;;;;6270743;22;19989;-88
2022/11/21 12:36:57;;;;;;;;;;;;;;;;;;6273326;22;19909;-90
2022/11/21 12:39:22;;;;;;;;;;;;;;;;;;6272272;22;19918;-87
2022/11/21 12:44:33;;;;;;;;;;;;;;;;;;6272096;22;19910;-85
2022/11/21 12:46:59;;;;;;;;;;;;;;;;;;6246026;22;19904;-87
2022/11/21 12:54:55;;;;;;;;;;;;;;;;;;6271920;22;19910;-86
2022/11/21 12:57:20;;;;;;;;;;;;;;;;;;6272268;22;20486;-86
2022/11/21 12:59:46;;;;;;;;;;;;;;;;;;6271682;22;19910;-88
2022/11/21 13:02:12;;;;;;;;;;;;;;;;;;6271884;22;20286;-90
2022/11/21 13:04:38;;;;;;;;;;;;;;;;;;6271996;22;19910;-87
2022/11/21 13:07:04;;;;;;;;;;;;;;;;;;6271855;22;19998;-87
2022/11/21 13:09:30;;;;;;;;;;;;;;;;;;6273201;22;19903;-89
2022/11/21 13:11:59;;;;;;;;;;;;;;;;;;6274373;22;19930;-89
2022/11/21 13:14:26;;;;;;;;;;;;;;;;;;6274875;22;19903;-87
2022/11/21 13:16:53;;;;;;;;;;;;;;;;;;6275471;22;20197;-88
2022/11/21 13:19:19;;;;;;;;;;;;;;;;;;6273358;22;20246;-88
2022/11/21 13:21:46;;;;;;;;;;;;;;;;;;6272201;22;19915;-89
2022/11/21 13:24:32;;;;;;;;;;;11.30;99.90;;;;;;6271702;22;19914;-90
2022/11/21 13:26:57;;;;;;;;;;;11.10;99.90;;;;;;6273008;22;19994;-87
2022/11/21 13:29:23;;;;;;;;;;;10.70;99.90;;;;;;6244638;22;20025;-88
2022/11/21 13:31:48;;;;;;;;;;;10.50;99.90;;;;;;6244547;22;19903;-89
2022/11/21 13:34:32;;;;;;;;;;;10.30;99.90;;;;;;6271799;22;19907;-87
2022/11/21 13:36:58;;;;;;;;;;;10.20;99.90;;;;;;6245731;22;20336;-87
2022/11/21 13:39:25;;;;;;;;;;;10.10;99.90;;;;;;6271704;22;19919;-89
2022/11/21 13:44:43;;;;;;;;;;;10.10;99.90;;;;;;6271724;22;19950;-88
2022/11/21 13:47:09;;;;;;;;;;;10.20;99.90;;;;;;6271840;22;19903;-86
2022/11/21 13:49:42;;;;;;;;;;;10.20;99.90;;;;;;6271878;22;19904;-86
2022/11/21 13:52:23;;;;;;;;;;;10.20;99.90;;;;;;6271861;22;19903;-87
2022/11/21 13:55:01;;;;;;;;;;;10.30;99.90;;;;;;6244625;22;19997;-88
2022/11/21 13:57:59;;;;;;;;;;;10.30;99.90;;;;;;6271625;22;19903;-87
2022/11/21 14:00:25;;;;;;;;;;;10.30;99.90;;;;;;6188471;22;19904;-89
2022/11/21 14:02:59;;;;;;;;;;;10.40;99.90;;;;;;6271670;22;19934;-87
2022/11/21 14:05:39;;;;;;;;;;;10.40;99.90;;;;;;6244325;22;20355;-87
2022/11/21 14:08:21;;;;;;;;;;;10.40;99.90;;;;;;6244402;22;19910;-86
2022/11/21 14:10:47;;;;;;;;;;;10.50;99.90;;;;;;6272189;22;19938;-88
2022/11/21 14:13:19;;;;;;;;;;;10.50;99.90;;;;;;6246510;22;19926;-86
2022/11/21 14:15:58;;;;;;;;;;;10.50;99.90;;;;;;6273580;22;19903;-86
2022/11/21 14:18:24;;;;;;;;;;;10.60;99.90;;;;;;6246389;22;19949;-87
2022/11/21 14:20:59;;;;;;;;;;;10.60;99.90;;;;;;6273640;22;19907;-86
2022/11/21 14:23:27;;;;;;;;;;;10.60;99.90;;;;;;6274836;22;19922;-87
2022/11/21 14:25:55;;;;;;;;;;;10.80;99.90;;;;;;6275738;22;19904;-88
2022/11/21 14:28:31;;;;;;;;;;;10.80;99.90;;;;;;6275528;22;20288;-88
2022/11/21 14:31:05;;;;;;;;;;;10.90;99.90;;;;;;6275240;22;19911;-87
2022/11/21 14:33:36;;;;;;;;;;;10.90;99.90;;;;;;6274608;22;19946;-86
2022/11/21 14:36:02;;;;;;;;;;;10.80;99.90;;;;;;6274475;22;19907;-86
2022/11/21 14:38:29;;;;;;;;;;;10.80;99.90;;;;;;6273105;22;19911;-87
2022/11/21 14:41:27;;;;;;;;;;;10.80;99.90;;;;;;6273056;22;20037;-85
2022/11/21 14:43:58;;;;;;;;;;;10.80;99.90;;;;;;6190106;22;19946;-87
2022/11/21 14:46:25;;;;;;;;;;;10.80;99.90;;;;;;6273339;22;19911;-89
2022/11/21 14:48:56;;;;;;;;;;;10.80;99.90;;;;;;6273298;22;19907;-88
2022/11/21 14:51:24;;;;;;;;;;;10.80;99.90;;;;;;6273168;22;19910;-87
2022/11/21 14:53:52;;;;;;;;;;;10.70;99.90;;;;;;6273393;22;19928;-87
2022/11/21 14:56:26;;;;;;;;;;;10.60;99.90;;;;;;6246079;22;19907;-88
2022/11/21 14:58:52;;;;;;;;;;;10.40;99.90;;;;;;6273188;22;19985;-88
2022/11/21 15:01:19;;;;;;;;;;;10.20;99.90;;;;;;6245926;22;19930;-86
2022/11/21 15:03:58;;;;;;;;;;;9.90;99.90;;;;;;6272966;22;19907;-85
2022/11/21 15:06:25;;;;;;;;;;;9.90;99.90;;;;;;6246199;22;20294;-86
2022/11/21 15:08:52;;;;;;;;;;;10.10;99.90;;;;;;6246168;22;20259;-84
2022/11/21 15:11:20;;;;;;;;;;;9.90;99.90;;;;;;6273180;22;19911;-87
2022/11/21 15:13:47;;;;;;;;;;;9.80;99.90;;;;;;6246037;22;19911;-89
2022/11/21 15:16:12;;;;;;;;;;;9.80;99.90;;;;;;6272994;22;19934;-87
2022/11/21 15:18:40;;;;;;;;;;;9.50;99.90;;;;;;6272879;22;19903;-86
2022/11/21 15:21:05;;;;;;;;;;;9.40;99.90;;;;;;6246904;22;19904;-88
2022/11/21 15:23:37;;;;;;;;;;;9.30;99.90;;;;;;6272729;22;19949;-87
2022/11/21 15:26:03;;;;;;;;;;;9.20;99.90;;;;;;6247036;22;19911;-87
2022/11/21 15:28:29;;;;;;;;;;;9.20;99.90;;;;;;6245965;22;19908;-88
2022/11/21 15:31:13;;;;;;;;;;;9.60;99.90;;;;;;6273057;22;19918;-91
2022/11/21 15:33:57;;;;;;;;;;;9.10;99.90;;;;;;6246344;22;19910;-86
2022/11/21 15:36:23;;;;;;;;;;;9.00;99.90;;;;;;6246130;22;19904;-92
2022/11/21 15:38:55;;;;;;;;;;;9.00;99.90;;;;;;6273336;22;20324;-90
2022/11/21 15:41:24;;;;;;;;;;;9.20;99.90;;;;;;6245991;22;19911;-87
2022/11/21 15:43:51;;;;;;;;;;;8.90;99.90;;;;;;6273081;22;19903;-90
2022/11/21 15:46:18;;;;;;;;;;;8.90;99.90;;;;;;6273111;22;19929;-87
2022/11/21 15:48:44;;;;;;;;;;;8.90;99.90;;;;;;6246161;22;19903;-89
2022/11/21 15:51:09;;;;;;;;;;;9.00;99.90;;;;;;6276544;22;19986;-87
2022/11/21 15:53:35;;;;;;;;;;;9.20;99.90;;;;;;6278201;22;19926;-88
2022/11/21 15:56:01;;;;;;;;;;;9.30;99.90;;;;;;6280215;22;19926;-90
2022/11/21 15:58:26;;;;;;;;;;;8.80;99.90;;;;;;6279202;22;19939;-88
2022/11/21 16:00:52;;;;;;;;;;;8.80;99.90;;;;;;6276212;22;20276;-91
2022/11/21 16:03:17;;;;;;;;;;;9.20;99.90;;;;;;6273203;22;19918;-91
2022/11/21 16:05:43;;;;;;;;;;;9.00;99.90;;;;;;6246137;22;19989;-88
2022/11/21 16:08:08;;;;;;;;;;;8.90;99.90;;;;;;6274011;22;20247;-90
2022/11/21 16:10:35;;;;;;;;;;;8.80;99.90;;;;;;6272703;22;19903;-91
2022/11/21 16:13:01;;;;;;;;;;;9.00;99.90;;;;;;6246112;22;20141;-88
2022/11/21 16:15:26;;;;;;;;;;;8.90;99.90;;;;;;6272698;22;19907;-90
2022/11/21 16:17:52;;;;;;;;;;;9.40;99.90;;;;;;6245400;22;19943;-88
2022/11/21 16:20:17;;;;;;;;;;;8.70;99.90;;;;;;6272451;22;19910;-88
2022/11/21 16:22:43;;;;;;;;;;;8.40;99.90;;;;;;6245161;22;19934;-88
2022/11/21 16:25:09;;;;;;;;;;;8.70;99.90;;;;;;6246219;22;19903;-91
2022/11/21 16:27:35;;;;;;;;;;;8.70;99.90;;;;;;6272123;22;20316;-90
2022/11/21 16:30:00;;;;;;;;;;;8.80;99.90;;;;;;6272878;22;19904;-87
2022/11/21 16:32:26;;;;;;;;;;;8.80;99.90;;;;;;6245436;22;19934;-90
2022/11/21 16:34:53;;;;;;;;;;;8.70;99.90;;;;;;6272218;22;20332;-90
2022/11/21 16:37:19;;;;;;;;;;;9.20;99.90;;;;;;6245249;22;19903;-89
2022/11/21 16:39:50;;;;;;;;;;;8.90;99.90;;;;;;6272291;22;19919;-92
2022/11/21 16:42:17;;;;;;;;;;;8.50;99.90;;;;;;6265242;22;19915;-89
2022/11/21 16:44:42;;;;;;;;;;;8.50;99.90;;;;;;6243162;22;19965;-87
2022/11/21 16:47:08;;;;;;;;;;;8.40;99.90;;;;;;6245484;22;20324;-89
2022/11/21 16:49:33;;;;;;;;;;;8.30;99.90;;;;;;6244194;22;19903;-91